Time;durP1;ratioP1;P1;durP2;ratioP2;P2;SDS_P1;SDS_P2;PMS_P1;PMS_P2;Temp;Humidity;BMP_temperature;BMP_pressure;BME280_temperature;BME280_humidity;BME280_pressure;Samples;Min_cycle;Max_cycle;Signal;HPM_P1;HPM_P2
2022/03/10 00:00:00;;;;;;;197.93;163.82;;;;;;;14.81;24.69;94322.69;5049599;28;20091;-83
2022/03/10 00:02:26;;;;;;;205.07;169.05;;;;;;;14.81;24.51;94320.75;5046146;28;20049;-84
2022/03/10 00:04:51;;;;;;;197.35;161.50;;;;;;;14.80;24.52;94327.31;5050938;28;20075;-84
2022/03/10 00:07:17;;;;;;;201.65;165.23;;;;;;;14.80;24.64;94318.47;5066828;28;20043;-84
2022/03/10 00:09:42;;;;;;;199.25;163.27;;;;;;;14.77;24.37;94320.06;5051842;28;20056;-83
2022/03/10 00:12:08;;;;;;;196.10;159.90;;;;;;;14.79;24.75;94325.78;5049677;28;20041;-84
2022/03/10 00:14:34;;;;;;;197.40;161.55;;;;;;;14.78;24.88;94332.34;5067302;28;20049;-83
2022/03/10 00:16:59;;;;;;;195.38;157.85;;;;;;;14.79;24.53;94325.78;5069761;28;20044;-84
2022/03/10 00:19:25;;;;;;;200.43;164.82;;;;;;;14.77;24.59;94324.69;5053880;28;20037;-84
2022/03/10 00:21:51;;;;;;;200.20;165.27;;;;;;;14.77;24.82;94335.47;5065842;28;20118;-84
2022/03/10 00:24:18;;;;;;;198.73;163.20;;;;;;;14.78;24.72;94334.28;5048531;28;20040;-84
2022/03/10 00:26:45;;;;;;;201.15;165.13;;;;;;;14.78;24.59;94339.69;5046045;28;20077;-84
2022/03/10 00:29:10;;;;;;;204.35;164.18;;;;;;;14.76;24.59;94342.78;5050677;28;20044;-84
2022/03/10 00:31:36;;;;;;;198.60;164.57;;;;;;;14.77;24.80;94346.25;5048953;28;20033;-84
2022/03/10 00:34:02;;;;;;;203.18;165.45;;;;;;;14.78;24.67;94337.75;5049914;28;20076;-83
2022/03/10 00:36:28;;;;;;;198.57;161.95;;;;;;;14.77;24.89;94335.47;5069009;28;20089;-84
2022/03/10 00:38:54;;;;;;;202.63;167.60;;;;;;;14.76;24.78;94337.41;5064582;28;20337;-84
2022/03/10 00:41:20;;;;;;;198.50;163.48;;;;;;;14.76;24.92;94342.78;5051673;28;20040;-84
2022/03/10 00:43:45;;;;;;;193.88;158.50;;;;;;;14.75;24.92;94340.53;5054049;28;20036;-83
2022/03/10 00:46:11;;;;;;;197.52;163.70;;;;;;;14.77;24.77;94343.56;5033904;28;20055;-84
2022/03/10 00:48:39;;;;;;;196.70;162.38;;;;;;;14.76;24.59;94350.13;5071345;28;20394;-84
2022/03/10 00:51:06;;;;;;;195.75;162.82;;;;;;;14.77;24.73;94343.56;5064632;28;20044;-82
2022/03/10 00:53:31;;;;;;;203.05;170.77;;;;;;;14.76;24.72;94337.41;5070575;28;20087;-84
2022/03/10 00:55:57;;;;;;;196.82;160.77;;;;;;;14.75;24.99;94335.13;5049456;28;20499;-85
2022/03/10 00:58:23;;;;;;;199.60;162.68;;;;;;;14.75;24.81;94346.66;5050291;28;20118;-83
2022/03/10 01:00:51;;;;;;;199.93;166.43;;;;;;;14.75;24.79;94343.97;5067361;28;20195;-83
2022/03/10 01:03:17;;;;;;;204.98;168.95;;;;;;;14.75;24.78;94345.91;5048341;28;20067;-84
2022/03/10 01:05:43;;;;;;;197.85;162.13;;;;;;;14.74;24.75;94339.78;5069189;28;20032;-83
2022/03/10 01:08:08;;;;;;;196.88;158.90;;;;;;;14.73;24.66;94343.63;5051304;28;20059;-84
2022/03/10 01:10:35;;;;;;;209.00;170.88;;;;;;;14.73;24.68;94332.88;5066445;28;20118;-83
2022/03/10 01:13:01;;;;;;;197.23;160.77;;;;;;;14.73;24.87;94340.19;5053141;28;20037;-84
2022/03/10 01:15:28;;;;;;;196.38;162.85;;;;;;;14.73;24.71;94345.56;5050627;28;20048;-83
2022/03/10 01:17:54;;;;;;;199.57;163.20;;;;;;;14.73;24.79;94342.88;5066719;28;20386;-84
2022/03/10 01:20:23;;;;;;;198.60;160.70;;;;;;;14.73;24.72;94348.28;5051872;28;20090;-84
2022/03/10 01:22:49;;;;;;;194.15;159.77;;;;;;;14.72;24.72;94347.50;5053591;28;20040;-84
2022/03/10 01:25:16;;;;;;;196.85;162.07;;;;;;;14.71;24.47;94339.84;5067754;28;20451;-84
2022/03/10 01:27:42;;;;;;;198.20;163.70;;;;;;;14.69;24.56;94336.84;5049471;28;20044;-84
2022/03/10 01:30:08;;;;;;;199.65;161.60;;;;;;;14.70;24.75;94341.03;5044033;28;20059;-84
2022/03/10 01:32:35;;;;;;;196.05;161.05;;;;;;;14.70;24.49;94341.78;5057953;28;20535;-84
2022/03/10 01:35:02;;;;;;;206.00;167.55;;;;;;;14.70;24.59;94335.66;5049959;28;20044;-86
2022/03/10 01:37:29;;;;;;;198.45;160.55;;;;;;;14.68;24.71;94333.38;5063853;28;20039;-83
2022/03/10 01:39:55;;;;;;;202.00;163.75;;;;;;;14.68;24.50;94335.31;5050135;28;20538;-84
2022/03/10 01:42:22;;;;;;;196.75;160.65;;;;;;;14.67;24.56;94331.88;5044209;28;20426;-84
2022/03/10 01:44:54;;;;;;;199.63;164.88;;;;;;;14.67;24.54;94337.25;5062782;28;20060;-83
2022/03/10 01:47:20;;;;;;;196.23;158.57;;;;;;;14.66;24.41;94338.44;5048901;28;20522;-85
2022/03/10 01:49:46;;;;;;;196.95;161.35;;;;;;;14.65;24.36;94341.56;5048767;28;20068;-83
2022/03/10 01:52:12;;;;;;;196.55;162.88;;;;;;;14.66;24.44;94329.59;5049263;28;20036;-84
2022/03/10 01:54:40;;;;;;;197.32;160.73;;;;;;;14.66;24.38;94329.59;5050211;28;20032;-84
2022/03/10 01:57:06;;;;;;;202.93;163.73;;;;;;;14.66;24.35;94335.00;5048501;28;20159;-83
2022/03/10 01:59:32;;;;;;;201.23;162.27;;;;;;;14.65;24.34;94334.22;5058179;28;20040;-84
2022/03/10 02:01:57;;;;;;;209.15;172.10;;;;;;;14.65;24.47;94331.53;5060443;28;20245;-84
2022/03/10 02:04:23;;;;;;;195.85;158.63;;;;;;;14.65;24.48;94320.03;5050074;28;20075;-84
2022/03/10 02:06:48;;;;;;;204.15;163.65;;;;;;;14.65;24.27;94328.09;5048432;28;20040;-84
2022/03/10 02:11:58;;;;;;;199.82;162.73;;;;;;;14.65;24.51;94317.31;5047388;28;20048;-84
2022/03/10 02:17:20;;;;;;;202.15;161.40;;;;;;;14.64;24.54;94315.81;5065913;28;20521;-84
2022/03/10 02:19:54;;;;;;;205.23;165.77;;;;;;;14.66;24.73;94319.59;5046721;28;20047;-84
2022/03/10 02:22:22;;;;;;;198.30;160.07;;;;;;;14.67;24.84;94313.03;5047364;28;20067;-84
2022/03/10 02:24:49;;;;;;;198.35;161.85;;;;;;;14.68;24.79;94313.78;5048822;28;20053;-84
2022/03/10 02:27:20;;;;;;;202.60;166.27;;;;;;;14.66;24.92;94313.44;5048875;28;20056;-83
2022/03/10 02:29:47;;;;;;;196.45;162.55;;;;;;;14.66;24.63;94313.44;5042800;28;20045;-84
2022/03/10 02:32:14;;;;;;;196.70;160.23;;;;;;;14.67;24.72;94312.28;5050233;28;20047;-84
2022/03/10 02:34:41;;;;;;;198.95;161.35;;;;;;;14.67;24.73;94314.97;5046407;28;20041;-84
2022/03/10 02:37:08;;;;;;;199.80;164.43;;;;;;;14.65;25.02;94315.38;5067940;28;20045;-84
2022/03/10 02:39:34;;;;;;;197.18;161.80;;;;;;;14.63;24.80;94309.66;5045907;28;20036;-85
2022/03/10 02:41:59;;;;;;;199.02;162.38;;;;;;;14.66;25.01;94316.16;5051795;28;20041;-84
2022/03/10 02:44:25;;;;;;;200.82;163.23;;;;;;;14.65;24.94;94320.78;5049329;28;20482;-84
2022/03/10 02:46:51;;;;;;;194.25;159.18;;;;;;;14.66;24.70;94314.22;5053390;28;20044;-83
2022/03/10 02:49:17;;;;;;;198.20;162.95;;;;;;;14.67;25.03;94320.34;5072323;28;20048;-83
2022/03/10 02:51:43;;;;;;;197.40;159.57;;;;;;;14.66;24.81;94316.91;5070662;28;20076;-85
2022/03/10 02:54:09;;;;;;;194.43;158.23;;;;;;;14.66;25.03;94316.16;5054945;28;20078;-84
2022/03/10 02:56:34;;;;;;;202.13;163.55;;;;;;;14.66;25.12;94319.59;5048226;28;20701;-84
2022/03/10 02:59:00;;;;;;;204.15;166.27;;;;;;;14.68;25.05;94319.16;5051130;28;20047;-83
2022/03/10 03:01:26;;;;;;;195.95;160.02;;;;;;;14.66;24.96;94319.59;5068363;28;20044;-84
2022/03/10 03:03:53;;;;;;;196.40;158.85;;;;;;;14.65;25.23;94314.63;5053569;28;20036;-84
2022/03/10 03:06:19;;;;;;;196.75;159.02;;;;;;;14.65;25.07;94315.38;5049110;28;20485;-83
2022/03/10 03:08:45;;;;;;;195.32;159.45;;;;;;;14.65;24.87;94320.78;5052085;28;20045;-84
2022/03/10 03:11:11;;;;;;;194.20;157.15;;;;;;;14.64;25.28;94319.25;5072876;28;20048;-83
2022/03/10 03:13:36;;;;;;;197.40;163.05;;;;;;;14.65;25.09;94325.41;5067353;28;20406;-84
2022/03/10 03:16:02;;;;;;;197.57;161.90;;;;;;;14.65;25.20;94320.03;5072554;28;20047;-84
2022/03/10 03:18:27;;;;;;;195.77;157.52;;;;;;;14.65;24.93;94317.31;5053194;28;20413;-85
2022/03/10 03:20:53;;;;;;;195.98;159.43;;;;;;;14.66;25.00;94321.53;5051199;28;20110;-83
2022/03/10 03:23:18;;;;;;;196.93;157.95;;;;;;;14.66;25.24;94329.59;5049745;28;20561;-84
2022/03/10 03:25:44;;;;;;;198.50;162.32;;;;;;;14.66;25.24;94321.53;5065629;28;20048;-84
2022/03/10 03:28:10;;;;;;;195.75;158.80;;;;;;;14.66;25.52;94333.06;5051579;28;20044;-83
2022/03/10 03:30:35;;;;;;;205.38;167.77;;;;;;;14.66;25.28;94326.91;5047305;28;20048;-84
2022/03/10 03:33:00;;;;;;;205.73;167.20;;;;;;;14.66;25.23;94335.00;5049956;28;20028;-86
2022/03/10 03:35:26;;;;;;;195.57;157.88;;;;;;;14.66;25.22;94341.13;5053095;28;20044;-83
2022/03/10 03:37:51;;;;;;;204.20;166.63;;;;;;;14.63;25.14;94341.97;5052487;28;20033;-83
2022/03/10 03:40:18;;;;;;;203.25;164.57;;;;;;;14.61;25.14;94347.03;5049074;28;20040;-84
2022/03/10 03:42:43;;;;;;;195.27;158.38;;;;;;;14.64;25.13;94353.50;5053476;28;20120;-84
2022/03/10 03:45:10;;;;;;;201.95;166.40;;;;;;;14.61;25.17;94351.66;5053620;28;20093;-84
2022/03/10 03:47:36;;;;;;;204.80;166.30;;;;;;;14.63;24.98;94355.44;5070176;28;20120;-84
2022/03/10 03:50:04;;;;;;;195.45;160.13;;;;;;;14.63;25.18;94354.69;5047684;28;20082;-84
2022/03/10 03:52:29;;;;;;;195.55;159.18;;;;;;;14.61;24.95;94362.41;5052942;28;20067;-83
2022/03/10 03:54:55;;;;;;;198.23;161.30;;;;;;;14.61;25.08;94354.34;5072566;28;20047;-83
2022/03/10 03:57:21;;;;;;;197.40;160.43;;;;;;;14.60;24.95;94367.03;5052476;28;20040;-83
2022/03/10 03:59:46;;;;;;;198.32;164.25;;;;;;;14.59;24.85;94378.22;5061835;28;20035;-84
2022/03/10 04:02:12;;;;;;;200.27;161.93;;;;;;;14.59;24.91;94373.59;5052277;28;20037;-84
2022/03/10 04:04:37;;;;;;;195.82;159.13;;;;;;;14.57;24.87;94372.50;5050446;28;20101;-84
2022/03/10 04:07:04;;;;;;;203.95;166.85;;;;;;;14.58;24.73;94374.78;5072064;28;20044;-83
2022/03/10 04:09:29;;;;;;;195.77;158.90;;;;;;;14.58;24.82;94371.34;5053317;28;20045;-84
2022/03/10 04:11:55;;;;;;;197.13;162.48;;;;;;;14.58;24.76;94380.16;5050768;28;20068;-83
2022/03/10 04:14:20;;;;;;;193.07;154.02;;;;;;;14.59;24.71;94380.91;5053061;28;20109;-84
2022/03/10 04:16:46;;;;;;;195.82;159.32;;;;;;;14.56;24.84;94385.22;5052471;28;20053;-84
2022/03/10 04:19:12;;;;;;;196.57;159.73;;;;;;;14.56;24.73;94384.47;5050616;28;20044;-84
2022/03/10 04:21:37;;;;;;;201.75;165.38;;;;;;;14.57;24.82;94389.41;5050906;28;20041;-84
2022/03/10 04:24:03;;;;;;;198.68;161.25;;;;;;;14.57;24.76;94392.09;5068148;28;20036;-84
2022/03/10 04:26:29;;;;;;;197.77;161.63;;;;;;;14.55;24.79;94391.00;5066849;28;20041;-84
2022/03/10 04:28:54;;;;;;;195.27;159.75;;;;;;;14.55;24.67;94391.78;5050429;28;20584;-84
2022/03/10 04:31:20;;;;;;;202.65;164.75;;;;;;;14.57;24.99;94400.19;5030280;28;20056;-83
2022/03/10 04:33:46;;;;;;;197.68;162.20;;;;;;;14.56;25.12;94392.53;5049544;28;20041;-84
2022/03/10 04:36:12;;;;;;;194.98;158.20;;;;;;;14.55;24.72;94396.41;5046155;28;20045;-84
2022/03/10 04:38:38;;;;;;;197.70;161.75;;;;;;;14.56;24.97;94398.66;5068947;28;20124;-84
2022/03/10 04:41:03;;;;;;;198.57;162.63;;;;;;;14.56;24.80;94398.66;5047863;28;20460;-84
2022/03/10 04:43:29;;;;;;;197.10;160.73;;;;;;;14.56;24.94;94406.00;5066762;28;20041;-84
2022/03/10 04:45:55;;;;;;;192.15;154.68;;;;;;;14.57;24.76;94404.81;5049213;28;20045;-84
2022/03/10 04:48:20;;;;;;;195.68;158.50;;;;;;;14.57;25.10;94396.72;5045806;28;20135;-83
2022/03/10 04:50:47;;;;;;;206.80;167.68;;;;;;;14.56;25.23;94398.66;5046579;28;20040;-84
2022/03/10 04:53:13;;;;;;;200.02;161.93;;;;;;;14.54;24.98;94405.66;5049405;28;20079;-83
2022/03/10 04:55:39;;;;;;;197.65;162.57;;;;;;;14.57;25.15;94394.81;5065512;28;20525;-84
2022/03/10 04:58:05;;;;;;;195.70;160.82;;;;;;;14.58;25.09;94407.06;5052282;28;20049;-83
2022/03/10 05:00:31;;;;;;;199.85;166.85;;;;;;;14.57;24.86;94399.44;5064619;28;20047;-85
2022/03/10 05:02:57;;;;;;;200.52;164.50;;;;;;;14.58;25.05;94406.31;5031280;28;20048;-84
2022/03/10 05:05:23;;;;;;;199.05;165.02;;;;;;;14.60;25.08;94406.66;5046566;28;20047;-81
2022/03/10 05:07:48;;;;;;;198.98;163.80;;;;;;;14.58;25.10;94399.00;5051691;28;20048;-84
2022/03/10 05:10:15;;;;;;;196.82;160.75;;;;;;;14.60;25.10;94404.72;5060891;28;20083;-84
2022/03/10 05:13:02;;;;;;;198.00;161.20;;;;;;;14.62;25.11;94401.63;5049414;28;20116;-85
2022/03/10 05:15:31;;;;;;;197.85;160.10;;;;;;;14.64;25.00;94410.03;5065497;28;20036;-84
2022/03/10 05:17:57;;;;;;;195.30;158.75;;;;;;;14.64;24.86;94391.94;5048973;28;20028;-84
2022/03/10 05:20:25;;;;;;;197.48;162.40;;;;;;;14.65;25.04;94390.75;5065444;28;20041;-86
2022/03/10 05:22:56;;;;;;;198.43;162.77;;;;;;;14.66;25.07;94389.59;5068278;28;20037;-86
2022/03/10 05:25:23;;;;;;;198.13;160.45;;;;;;;14.68;24.85;94394.53;5052134;28;20113;-84
2022/03/10 05:27:50;;;;;;;196.52;157.88;;;;;;;14.67;25.08;94385.72;5027605;28;20102;-84
2022/03/10 05:30:17;;;;;;;200.43;162.43;;;;;;;14.69;24.95;94396.81;5049902;28;20127;-85
2022/03/10 05:32:43;;;;;;;200.02;164.73;;;;;;;14.69;25.03;94385.28;5069623;28;20072;-85
2022/03/10 05:35:11;;;;;;;201.63;166.45;;;;;;;14.70;24.98;94392.19;5049105;28;20109;-84
2022/03/10 05:37:38;;;;;;;210.95;167.02;;;;;;;14.72;24.99;94389.81;5049789;28;20051;-83
2022/03/10 05:40:16;;;;;;;193.40;157.23;;;;;;;14.72;25.01;94385.19;5058127;28;20036;-83
2022/03/10 05:42:43;;;;;;;199.85;163.65;;;;;;;14.73;25.08;94386.72;5057862;28;20048;-84
2022/03/10 05:45:10;;;;;;;198.70;161.02;;;;;;;14.75;24.90;94394.38;5052741;28;20051;-84
2022/03/10 05:47:36;;;;;;;194.73;157.95;;;;;;;14.75;24.71;94394.38;5040987;28;20101;-84
2022/03/10 05:50:03;;;;;;;195.77;158.15;;;;;;;14.74;25.01;94399.00;5046275;28;20056;-84
2022/03/10 05:52:28;;;;;;;195.63;160.00;;;;;;;14.75;24.83;94399.75;5052920;28;20040;-85
2022/03/10 05:54:54;;;;;;;197.07;161.25;;;;;;;14.77;24.99;94392.00;5052972;28;20115;-84
2022/03/10 05:57:20;;;;;;;196.93;157.50;;;;;;;14.76;25.04;94395.88;5046517;28;20079;-85
2022/03/10 05:59:45;;;;;;;190.65;154.07;;;;;;;14.78;24.71;94396.22;5044817;28;20045;-84
2022/03/10 06:02:11;;;;;;;194.35;155.70;;;;;;;14.78;24.93;94396.97;5053837;28;20037;-84
2022/03/10 06:04:37;;;;;;;191.98;155.07;;;;;;;14.79;24.92;94403.88;5065137;28;20056;-85
2022/03/10 06:07:03;;;;;;;189.88;152.65;;;;;;;14.79;24.85;94403.13;5067097;28;20047;-84
2022/03/10 06:09:28;;;;;;;193.55;156.80;;;;;;;14.79;24.65;94395.78;5052686;28;20037;-84
2022/03/10 06:11:54;;;;;;;195.10;159.20;;;;;;;14.80;24.95;94399.25;5053523;28;20048;-84
2022/03/10 06:14:20;;;;;;;198.18;159.20;;;;;;;14.80;24.77;94401.94;5026395;28;20071;-84
2022/03/10 06:16:45;;;;;;;195.32;158.40;;;;;;;14.80;24.73;94397.31;5066106;28;20521;-85
2022/03/10 06:19:11;;;;;;;195.55;159.23;;;;;;;14.81;24.62;94398.06;5058860;28;20049;-85
2022/03/10 06:21:38;;;;;;;195.85;158.18;;;;;;;14.81;24.91;94400.75;5065618;28;20040;-85
2022/03/10 06:24:05;;;;;;;193.38;156.32;;;;;;;14.80;24.84;94400.00;5064858;28;20638;-84
2022/03/10 06:26:31;;;;;;;192.80;156.02;;;;;;;14.81;24.88;94406.13;5059439;28;20494;-85
2022/03/10 06:28:56;;;;;;;199.63;161.60;;;;;;;14.83;24.91;94401.09;5043926;28;20029;-84
2022/03/10 06:31:24;;;;;;;199.32;162.20;;;;;;;14.85;24.81;94400.66;5059468;28;20044;-85
2022/03/10 06:33:51;;;;;;;194.05;157.32;;;;;;;14.84;24.83;94399.91;5034645;28;20131;-83
2022/03/10 06:36:19;;;;;;;195.70;158.50;;;;;;;14.87;24.97;94399.06;5071511;28;20040;-84
2022/03/10 06:38:44;;;;;;;195.60;162.18;;;;;;;14.88;25.06;94405.22;5039532;28;20170;-84
2022/03/10 06:41:10;;;;;;;195.32;159.40;;;;;;;14.86;25.09;94396.78;5056449;28;20063;-85
2022/03/10 06:43:35;;;;;;;195.20;160.50;;;;;;;14.87;25.17;94409.06;5070407;28;20047;-85
2022/03/10 06:46:01;;;;;;;198.27;161.38;;;;;;;14.84;24.97;94405.28;5053324;28;20064;-84
2022/03/10 06:48:26;;;;;;;190.65;154.60;;;;;;;14.88;25.03;94413.28;5054623;28;20036;-84
2022/03/10 06:50:52;;;;;;;194.43;158.75;;;;;;;14.88;24.95;94411.34;5069896;28;20460;-85
2022/03/10 06:53:17;;;;;;;197.20;161.10;;;;;;;14.87;25.01;94404.44;5053227;28;20040;-84
2022/03/10 06:55:43;;;;;;;194.57;162.90;;;;;;;14.85;25.11;94408.75;5049012;28;20117;-84
2022/03/10 06:58:09;;;;;;;197.50;155.77;;;;;;;14.87;25.49;94399.06;5042461;28;20041;-86
2022/03/10 07:00:34;;;;;;;204.93;168.50;;;;;;;14.88;25.08;94402.50;5050199;28;20140;-84
2022/03/10 07:03:00;;;;;;;194.65;158.75;;;;;;;14.87;25.15;94396.38;5071184;28;20055;-82
2022/03/10 07:16:53;;;;;;;200.45;159.55;;;;;;;14.90;25.14;94390.13;5069632;23;20185;-62
2022/03/10 07:19:19;;;;;;;198.45;158.85;;;;;;;14.93;25.04;94391.22;5049494;28;20118;-62
2022/03/10 07:21:44;;;;;;;197.02;156.65;;;;;;;14.93;25.12;94385.84;5056336;28;20056;-62
2022/03/10 07:24:11;;;;;;;200.70;164.18;;;;;;;14.89;25.08;94375.16;5045738;28;20440;-62
2022/03/10 07:26:37;;;;;;;198.90;163.05;;;;;;;14.93;25.07;94391.97;5064123;28;20044;-60
2022/03/10 07:29:03;;;;;;;202.02;164.80;;;;;;;14.92;25.12;94379.69;5062103;28;20055;-60
2022/03/10 07:31:30;;;;;;;195.90;161.07;;;;;;;14.93;25.14;94389.28;5060818;28;20040;-61
2022/03/10 07:33:56;;;;;;;200.38;165.82;;;;;;;14.94;24.98;94376.59;5069524;28;20047;-60
2022/03/10 07:36:22;;;;;;;206.55;170.27;;;;;;;14.93;24.99;94375.06;5065090;28;20041;-59
2022/03/10 07:38:47;;;;;;;198.15;161.13;;;;;;;14.92;25.14;94377.00;5060067;28;20102;-59
2022/03/10 07:41:13;;;;;;;201.10;165.43;;;;;;;14.93;24.93;94375.06;5049431;28;20536;-61
2022/03/10 07:43:38;;;;;;;198.45;162.60;;;;;;;14.93;24.97;94381.22;5060653;28;20051;-60
2022/03/10 07:46:05;;;;;;;201.23;164.40;;;;;;;14.96;25.00;94379.59;5062409;28;20032;-61
2022/03/10 07:48:31;;;;;;;215.07;173.43;;;;;;;14.95;24.98;94378.81;5055477;28;20052;-60
2022/03/10 07:50:57;;;;;;;211.85;174.70;;;;;;;14.96;25.05;94382.28;5067310;28;20040;-60
2022/03/10 07:53:22;;;;;;;200.23;165.38;;;;;;;14.97;25.27;94375.72;5071663;28;20056;-60
2022/03/10 07:55:50;;;;;;;200.85;164.88;;;;;;;14.96;25.18;94379.59;5067307;28;20040;-60
2022/03/10 07:58:15;;;;;;;198.32;162.85;;;;;;;14.95;25.17;94375.41;5068356;28;20048;-60
2022/03/10 08:00:42;;;;;;;218.65;176.63;;;;;;;14.93;25.07;94367.75;5052265;28;20039;-60
2022/03/10 08:03:08;;;;;;;199.80;162.88;;;;;;;14.93;25.21;94367.75;5061145;28;20106;-59
2022/03/10 08:05:34;;;;;;;198.55;163.60;;;;;;;14.94;25.10;94360.44;5048923;28;20096;-60
2022/03/10 08:08:01;;;;;;;200.57;165.02;;;;;;;14.93;25.12;94373.13;5060949;28;20193;-60
2022/03/10 08:10:27;;;;;;;201.32;165.20;;;;;;;14.94;25.21;94368.50;5067036;28;20070;-60
2022/03/10 08:12:52;;;;;;;198.02;162.80;;;;;;;14.93;25.08;94354.28;5062475;28;20044;-59
2022/03/10 08:15:18;;;;;;;222.52;179.98;;;;;;;14.93;25.06;94359.66;5052939;28;20045;-59
2022/03/10 08:17:44;;;;;;;222.27;180.48;;;;;;;14.93;25.13;94358.91;5049901;28;20513;-60
2022/03/10 08:20:10;;;;;;;200.55;163.38;;;;;;;14.93;25.11;94356.22;5057215;28;20464;-60
2022/03/10 08:22:36;;;;;;;201.40;167.02;;;;;;;14.93;24.99;94353.53;5055675;28;20040;-60
2022/03/10 08:25:02;;;;;;;201.45;163.70;;;;;;;14.93;25.08;94351.59;5059481;28;20064;-60
2022/03/10 08:27:27;;;;;;;200.60;164.73;;;;;;;14.94;25.14;94352.34;5052688;28;20093;-60
2022/03/10 08:29:53;;;;;;;203.13;167.40;;;;;;;14.93;24.93;94353.53;5057143;28;20398;-60
2022/03/10 08:32:19;;;;;;;201.68;164.38;;;;;;;14.92;25.06;94354.72;5065246;28;20477;-59
2022/03/10 08:34:45;;;;;;;200.73;165.32;;;;;;;14.93;24.93;94345.44;5054493;28;20095;-61
2022/03/10 08:37:10;;;;;;;209.15;172.50;;;;;;;14.92;25.05;94346.63;5051264;28;20053;-61
2022/03/10 08:39:36;;;;;;;199.13;165.13;;;;;;;14.94;25.12;94342.34;5061035;28;20115;-61
2022/03/10 08:42:01;;;;;;;201.00;162.88;;;;;;;14.95;25.01;94340.41;5058036;28;20048;-62
2022/03/10 08:44:27;;;;;;;199.95;164.98;;;;;;;14.96;24.98;94342.63;5062996;28;20048;-61
2022/03/10 08:46:52;;;;;;;200.50;163.93;;;;;;;14.95;25.01;94343.81;5055135;28;20072;-61
2022/03/10 08:49:18;;;;;;;203.73;168.07;;;;;;;14.99;24.93;94351.81;5046948;28;20669;-61
2022/03/10 08:51:45;;;;;;;202.20;168.48;;;;;;;14.99;24.93;94343.72;5055562;28;20471;-60
2022/03/10 08:54:12;;;;;;;205.80;171.25;;;;;;;14.98;25.02;94337.59;5052611;28;20270;-59
2022/03/10 08:56:38;;;;;;;201.27;167.52;;;;;;;14.97;25.00;94336.06;5066970;28;20559;-60
2022/03/10 08:59:03;;;;;;;208.38;174.63;;;;;;;14.96;25.29;94341.88;5072118;28;20480;-61
2022/03/10 09:01:29;;;;;;;212.27;174.15;;;;;;;14.95;25.16;94330.34;5035584;28;20067;-61
2022/03/10 09:03:55;;;;;;;199.20;166.02;;;;;;;14.95;25.20;94322.28;5046387;28;20094;-61
2022/03/10 09:06:20;;;;;;;196.13;157.93;;;;;;;14.97;25.16;94321.84;5053021;28;20129;-61
2022/03/10 09:08:46;;;;;;;199.88;166.10;;;;;;;14.96;25.07;94326.47;5046577;28;20074;-60
2022/03/10 09:11:12;;;;;;;200.88;167.07;;;;;;;14.94;25.01;94318.09;5065149;28;20131;-61
2022/03/10 09:13:37;;;;;;;202.23;165.35;;;;;;;14.97;25.11;94324.53;5053818;28;20517;-60
2022/03/10 09:16:03;;;;;;;201.20;165.32;;;;;;;14.95;25.16;94321.53;5047651;28;20109;-60
2022/03/10 09:18:29;;;;;;;199.35;163.68;;;;;;;14.97;25.07;94308.38;5054421;28;20081;-61
2022/03/10 09:20:54;;;;;;;207.55;171.82;;;;;;;14.98;25.09;94318.72;5048480;28;20045;-60
2022/03/10 09:23:21;;;;;;;207.35;169.48;;;;;;;14.96;24.81;94309.56;5061979;28;20043;-61
2022/03/10 09:25:46;;;;;;;200.88;166.75;;;;;;;14.88;24.57;94310.97;5047656;28;20045;-60
2022/03/10 09:28:13;;;;;;;196.88;161.30;;;;;;;14.90;24.85;94314.75;5053784;28;20102;-61
2022/03/10 09:30:39;;;;;;;221.07;178.82;;;;;;;14.91;24.74;94305.47;5060865;28;20412;-61
2022/03/10 09:33:04;;;;;;;195.50;161.73;;;;;;;14.91;24.82;94302.03;5059320;28;20044;-60
2022/03/10 09:35:30;;;;;;;201.57;164.93;;;;;;;14.88;24.83;94300.19;5050393;28;20056;-61
2022/03/10 09:37:56;;;;;;;200.27;165.48;;;;;;;14.85;24.68;94307.19;5050372;28;20628;-60
2022/03/10 09:40:21;;;;;;;202.60;164.55;;;;;;;14.73;24.66;94311.34;5063845;28;20044;-60
2022/03/10 09:42:49;;;;;;;202.18;167.30;;;;;;;14.77;24.71;94305.84;5068496;28;20063;-61
2022/03/10 09:45:17;;;;;;;202.80;166.73;;;;;;;14.82;24.36;94299.97;5037689;28;20052;-59
2022/03/10 09:47:44;;;;;;;200.45;164.88;;;;;;;14.82;24.39;94305.34;5068965;28;20048;-60
2022/03/10 09:50:12;;;;;;;201.55;163.40;;;;;;;14.78;24.40;94310.81;5063934;28;20106;-61
2022/03/10 09:52:38;;;;;;;200.38;163.88;;;;;;;14.68;24.60;94303.03;5063356;28;20044;-61
2022/03/10 09:55:06;;;;;;;197.52;163.18;;;;;;;14.65;24.38;94301.94;5058701;28;20421;-61
2022/03/10 09:57:34;;;;;;;200.90;163.10;;;;;;;14.66;24.34;94306.13;5062173;28;20143;-61
2022/03/10 10:00:00;;;;;;;200.18;160.85;;;;;;;14.64;24.30;94289.66;5067162;28;20056;-61
2022/03/10 10:02:27;;;;;;;198.00;161.00;;;;;;;14.58;24.37;94304.03;5062202;28;20110;-60
2022/03/10 10:04:53;;;;;;;202.75;163.82;;;;;;;14.55;24.10;94299.50;5055471;28;20083;-60
2022/03/10 10:07:29;;;;;;;206.02;166.15;;;;;;;14.57;24.23;94303.28;5061325;28;20037;-61
2022/03/10 10:09:56;;;;;;;201.50;164.15;;;;;;;14.61;24.15;94301.25;5066111;28;20044;-61
2022/03/10 10:12:31;;;;;;;202.05;163.73;;;;;;;14.65;23.85;94293.84;5053102;28;20056;-61
2022/03/10 10:14:58;;;;;;;205.00;165.75;;;;;;;14.68;24.07;94298.38;5050391;28;20423;-60
2022/03/10 10:17:29;;;;;;;202.63;162.65;;;;;;;14.76;24.12;94298.97;5048132;28;20068;-61
2022/03/10 10:19:57;;;;;;;196.90;158.07;;;;;;;14.68;24.08;94294.94;5055588;28;20884;-61
2022/03/10 10:22:24;;;;;;;194.70;155.75;;;;;;;14.55;24.25;94297.56;5060811;28;20067;-60
2022/03/10 10:24:54;;;;;;;193.18;154.23;;;;;;;14.54;24.18;94296.06;5067007;28;20566;-61
2022/03/10 10:27:25;;;;;;;210.00;170.90;;;;;;;14.58;24.18;94290.59;5056955;28;20336;-60
2022/03/10 10:29:52;;;;;;;199.50;162.40;;;;;;;14.60;24.08;94299.75;5043000;28;20413;-60
2022/03/10 10:32:27;;;;;;;201.48;162.88;;;;;;;14.54;24.37;94308.75;5058127;28;20570;-61
2022/03/10 10:35:07;;;;;;;199.27;159.48;;;;;;;14.50;24.16;94303.47;5065712;28;20040;-61
2022/03/10 10:37:35;;;;;;;204.68;164.07;;;;;;;14.52;24.15;94316.50;5053066;28;20140;-61
2022/03/10 10:40:00;;;;;;;202.10;162.90;;;;;;;14.48;24.09;94295.81;5057660;28;20049;-61
2022/03/10 10:42:28;;;;;;;200.30;159.00;;;;;;;14.58;23.66;94299.44;5064731;28;20059;-60
2022/03/10 10:44:54;;;;;;;205.15;163.40;;;;;;;14.58;24.02;94301.34;5055442;28;20065;-61
2022/03/10 10:47:20;;;;;;;193.25;156.25;;;;;;;14.59;24.09;94292.09;5073202;28;20048;-59
2022/03/10 10:49:56;;;;;;;193.82;155.13;;;;;;;14.64;24.03;94292.34;5064427;28;20047;-61
2022/03/10 10:52:22;;;;;;;202.48;163.50;;;;;;;14.65;24.04;94291.16;5036646;28;20063;-60
2022/03/10 10:54:48;;;;;;;206.43;166.27;;;;;;;14.68;24.07;94292.25;5054278;28;20505;-60
2022/03/10 10:57:21;;;;;;;206.80;167.55;;;;;;;14.62;24.03;94286.63;5061543;28;20044;-61
2022/03/10 10:59:47;;;;;;;201.45;165.32;;;;;;;14.66;24.43;94286.53;5066200;28;20056;-61
2022/03/10 11:02:16;;;;;;;198.50;162.50;;;;;;;14.69;24.08;94289.13;5054007;28;20040;-61
2022/03/10 11:04:46;;;;;;;200.18;162.32;;;;;;;14.59;24.22;94281.34;5061151;28;20068;-60
2022/03/10 11:07:13;;;;;;;199.38;159.13;;;;;;;14.56;24.03;94263.34;5071877;28;20051;-61
2022/03/10 11:09:41;;;;;;;202.30;165.25;;;;;;;14.64;24.16;94270.81;5069224;28;20045;-61
2022/03/10 11:12:11;;;;;;;199.38;159.80;;;;;;;14.65;24.28;94272.31;5056957;28;20036;-60
2022/03/10 11:14:37;;;;;;;201.67;161.30;;;;;;;14.67;24.21;94261.88;5044946;28;20090;-59